FMCH

Prince Said Ibrahim International Airport

Moroni, Comoros
METAR FMCH 201900Z 12008KT 9999 FEW020 23/19 Q1019 NOSIG
Observed Flight Rules
Aug-20 @ 19:00 UTC (an hour ago) Visual Flight Rules
Wind Visibility Clouds
120° at 8 knots 10,000+ meters
  • Few at 2,000' AGL
Temperatures Readings
Current 23°C / 73°F
Dewpoint 19°C / 66°F
Humidity 78%
Altimeter 30.09" Hg
Pressure 1019 hPa
Elevation 29
METAR FMCH 201900Z 12008KT 9999 FEW020 23/19 Q1019 NOSIG
Observed Flight Rules
Aug-20 @ 19:00 UTC
(an hour ago)
VFR
Wind Visibility
120° at 8 knots 10,000+ meters
Clouds
  • Few at 2,000' AGL
Temperature Dewpoint
23°C / 73°F 19°C / 66°F
Humidity Altimeter Pressure
78% 30.09" Hg 1019 hPa